sensor_id;sensor_type;location;lat;lon;timestamp;P1;durP1;ratioP1;P2;durP2;ratioP2
5077;SDS011;2557;51.390;7.494;2023-06-22T00:00:36;9.93;;;9.07;;
5077;SDS011;2557;51.390;7.494;2023-06-22T00:03:04;11.07;;;10.00;;
5077;SDS011;2557;51.390;7.494;2023-06-22T00:05:30;10.63;;;9.40;;
5077;SDS011;2557;51.390;7.494;2023-06-22T00:07:56;11.50;;;9.33;;
5077;SDS011;2557;51.390;7.494;2023-06-22T00:10:22;9.70;;;8.83;;
5077;SDS011;2557;51.390;7.494;2023-06-22T00:12:48;10.13;;;9.23;;
5077;SDS011;2557;51.390;7.494;2023-06-22T00:15:14;11.60;;;10.50;;
5077;SDS011;2557;51.390;7.494;2023-06-22T00:17:40;10.33;;;9.33;;
5077;SDS011;2557;51.390;7.494;2023-06-22T00:20:07;12.10;;;9.23;;
5077;SDS011;2557;51.390;7.494;2023-06-22T00:22:34;9.87;;;8.70;;
5077;SDS011;2557;51.390;7.494;2023-06-22T00:25:04;10.77;;;9.80;;
5077;SDS011;2557;51.390;7.494;2023-06-22T00:27:30;11.20;;;10.03;;
5077;SDS011;2557;51.390;7.494;2023-06-22T00:29:56;9.80;;;9.00;;
5077;SDS011;2557;51.390;7.494;2023-06-22T00:32:22;9.77;;;8.80;;
5077;SDS011;2557;51.390;7.494;2023-06-22T00:34:48;9.90;;;8.90;;
5077;SDS011;2557;51.390;7.494;2023-06-22T00:37:15;13.53;;;9.53;;
5077;SDS011;2557;51.390;7.494;2023-06-22T00:39:41;11.70;;;9.77;;
5077;SDS011;2557;51.390;7.494;2023-06-22T00:42:07;10.87;;;9.40;;
5077;SDS011;2557;51.390;7.494;2023-06-22T00:44:33;12.00;;;10.90;;
5077;SDS011;2557;51.390;7.494;2023-06-22T00:46:59;11.83;;;10.60;;
5077;SDS011;2557;51.390;7.494;2023-06-22T00:49:25;13.63;;;9.83;;
5077;SDS011;2557;51.390;7.494;2023-06-22T00:51:51;10.20;;;9.30;;
5077;SDS011;2557;51.390;7.494;2023-06-22T00:54:17;10.73;;;9.80;;
5077;SDS011;2557;51.390;7.494;2023-06-22T00:56:49;9.90;;;8.90;;
5077;SDS011;2557;51.390;7.494;2023-06-22T00:59:16;10.00;;;9.10;;
5077;SDS011;2557;51.390;7.494;2023-06-22T01:01:42;10.40;;;9.40;;
5077;SDS011;2557;51.390;7.494;2023-06-22T01:04:08;9.73;;;8.80;;
5077;SDS011;2557;51.390;7.494;2023-06-22T01:06:35;9.90;;;8.90;;
5077;SDS011;2557;51.390;7.494;2023-06-22T01:09:06;9.27;;;8.37;;
5077;SDS011;2557;51.390;7.494;2023-06-22T01:11:36;9.87;;;9.03;;
5077;SDS011;2557;51.390;7.494;2023-06-22T01:14:09;10.90;;;9.17;;
5077;SDS011;2557;51.390;7.494;2023-06-22T01:16:40;9.80;;;9.00;;
5077;SDS011;2557;51.390;7.494;2023-06-22T01:21:52;10.20;;;9.30;;
5077;SDS011;2557;51.390;7.494;2023-06-22T01:27:09;10.10;;;9.07;;
5077;SDS011;2557;51.390;7.494;2023-06-22T01:29:39;10.20;;;9.20;;
5077;SDS011;2557;51.390;7.494;2023-06-22T01:32:05;13.03;;;8.60;;
5077;SDS011;2557;51.390;7.494;2023-06-22T01:34:32;11.00;;;9.27;;
5077;SDS011;2557;51.390;7.494;2023-06-22T01:36:59;8.97;;;8.17;;
5077;SDS011;2557;51.390;7.494;2023-06-22T01:39:25;11.00;;;8.60;;
5077;SDS011;2557;51.390;7.494;2023-06-22T01:41:51;11.20;;;8.90;;
5077;SDS011;2557;51.390;7.494;2023-06-22T01:44:19;9.60;;;7.57;;
5077;SDS011;2557;51.390;7.494;2023-06-22T01:46:46;9.53;;;8.63;;
5077;SDS011;2557;51.390;7.494;2023-06-22T01:49:13;9.30;;;8.50;;
5077;SDS011;2557;51.390;7.494;2023-06-22T01:51:39;9.03;;;7.87;;
5077;SDS011;2557;51.390;7.494;2023-06-22T01:54:06;9.50;;;8.70;;
5077;SDS011;2557;51.390;7.494;2023-06-22T01:56:33;8.13;;;7.50;;
5077;SDS011;2557;51.390;7.494;2023-06-22T02:01:44;10.90;;;8.37;;
5077;SDS011;2557;51.390;7.494;2023-06-22T02:04:18;8.23;;;7.40;;
5077;SDS011;2557;51.390;7.494;2023-06-22T02:06:45;11.63;;;9.00;;
5077;SDS011;2557;51.390;7.494;2023-06-22T02:09:12;11.27;;;8.33;;
5077;SDS011;2557;51.390;7.494;2023-06-22T02:11:40;8.80;;;8.10;;
5077;SDS011;2557;51.390;7.494;2023-06-22T02:14:07;9.03;;;8.07;;
5077;SDS011;2557;51.390;7.494;2023-06-22T02:16:33;8.00;;;7.20;;
5077;SDS011;2557;51.390;7.494;2023-06-22T02:19:00;8.00;;;7.20;;
5077;SDS011;2557;51.390;7.494;2023-06-22T02:21:31;10.50;;;7.70;;
5077;SDS011;2557;51.390;7.494;2023-06-22T02:23:57;8.63;;;7.93;;
5077;SDS011;2557;51.390;7.494;2023-06-22T02:26:23;11.40;;;8.33;;
5077;SDS011;2557;51.390;7.494;2023-06-22T02:28:50;8.60;;;7.63;;
5077;SDS011;2557;51.390;7.494;2023-06-22T02:31:16;11.27;;;8.77;;
5077;SDS011;2557;51.390;7.494;2023-06-22T02:33:42;8.67;;;7.77;;
5077;SDS011;2557;51.390;7.494;2023-06-22T02:36:09;9.47;;;8.43;;
5077;SDS011;2557;51.390;7.494;2023-06-22T02:38:38;9.73;;;8.60;;
5077;SDS011;2557;51.390;7.494;2023-06-22T02:41:04;9.50;;;8.13;;
5077;SDS011;2557;51.390;7.494;2023-06-22T02:43:31;8.77;;;7.97;;
5077;SDS011;2557;51.390;7.494;2023-06-22T02:45:57;9.03;;;8.23;;
5077;SDS011;2557;51.390;7.494;2023-06-22T02:48:23;10.40;;;9.40;;
5077;SDS011;2557;51.390;7.494;2023-06-22T02:50:49;9.00;;;8.07;;
5077;SDS011;2557;51.390;7.494;2023-06-22T02:53:15;8.47;;;7.67;;
5077;SDS011;2557;51.390;7.494;2023-06-22T02:55:41;10.40;;;9.33;;
5077;SDS011;2557;51.390;7.494;2023-06-22T02:58:07;9.60;;;8.60;;
5077;SDS011;2557;51.390;7.494;2023-06-22T03:00:33;9.93;;;9.10;;
5077;SDS011;2557;51.390;7.494;2023-06-22T03:02:59;11.50;;;9.83;;
5077;SDS011;2557;51.390;7.494;2023-06-22T03:05:25;9.80;;;8.73;;
5077;SDS011;2557;51.390;7.494;2023-06-22T03:07:51;10.00;;;9.17;;
5077;SDS011;2557;51.390;7.494;2023-06-22T03:10:17;10.10;;;9.10;;
5077;SDS011;2557;51.390;7.494;2023-06-22T03:12:43;9.90;;;8.90;;
5077;SDS011;2557;51.390;7.494;2023-06-22T03:15:10;13.67;;;9.37;;
5077;SDS011;2557;51.390;7.494;2023-06-22T03:17:37;11.77;;;10.57;;
5077;SDS011;2557;51.390;7.494;2023-06-22T03:20:04;14.77;;;9.80;;
5077;SDS011;2557;51.390;7.494;2023-06-22T03:22:39;11.50;;;10.40;;
5077;SDS011;2557;51.390;7.494;2023-06-22T03:25:06;11.53;;;10.27;;
5077;SDS011;2557;51.390;7.494;2023-06-22T03:27:37;12.53;;;10.63;;
5077;SDS011;2557;51.390;7.494;2023-06-22T03:30:04;11.93;;;10.60;;
5077;SDS011;2557;51.390;7.494;2023-06-22T03:32:30;15.60;;;10.53;;
5077;SDS011;2557;51.390;7.494;2023-06-22T03:34:56;11.10;;;10.00;;
5077;SDS011;2557;51.390;7.494;2023-06-22T03:37:24;10.73;;;9.83;;
5077;SDS011;2557;51.390;7.494;2023-06-22T03:39:50;11.87;;;10.53;;
5077;SDS011;2557;51.390;7.494;2023-06-22T03:42:16;13.40;;;9.87;;
5077;SDS011;2557;51.390;7.494;2023-06-22T03:44:42;10.83;;;9.80;;
5077;SDS011;2557;51.390;7.494;2023-06-22T03:47:08;10.23;;;9.23;;
5077;SDS011;2557;51.390;7.494;2023-06-22T03:49:34;11.23;;;10.10;;
5077;SDS011;2557;51.390;7.494;2023-06-22T03:52:01;16.00;;;10.10;;
5077;SDS011;2557;51.390;7.494;2023-06-22T03:54:28;10.93;;;9.43;;
5077;SDS011;2557;51.390;7.494;2023-06-22T03:56:54;12.53;;;9.97;;
5077;SDS011;2557;51.390;7.494;2023-06-22T03:59:20;11.30;;;9.90;;
5077;SDS011;2557;51.390;7.494;2023-06-22T04:01:46;10.07;;;9.13;;
5077;SDS011;2557;51.390;7.494;2023-06-22T04:04:12;10.93;;;9.83;;
5077;SDS011;2557;51.390;7.494;2023-06-22T04:06:38;10.87;;;9.63;;
5077;SDS011;2557;51.390;7.494;2023-06-22T04:09:05;10.37;;;9.40;;
5077;SDS011;2557;51.390;7.494;2023-06-22T04:11:31;11.47;;;10.27;;
5077;SDS011;2557;51.390;7.494;2023-06-22T04:13:57;12.70;;;11.60;;
5077;SDS011;2557;51.390;7.494;2023-06-22T04:16:23;15.90;;;12.90;;
5077;SDS011;2557;51.390;7.494;2023-06-22T04:18:49;15.17;;;11.87;;
5077;SDS011;2557;51.390;7.494;2023-06-22T04:21:15;15.47;;;11.43;;
5077;SDS011;2557;51.390;7.494;2023-06-22T04:23:41;14.27;;;11.30;;
5077;SDS011;2557;51.390;7.494;2023-06-22T04:26:08;15.30;;;11.53;;
5077;SDS011;2557;51.390;7.494;2023-06-22T04:28:34;12.67;;;11.03;;
5077;SDS011;2557;51.390;7.494;2023-06-22T04:31:03;10.90;;;9.90;;
5077;SDS011;2557;51.390;7.494;2023-06-22T04:33:29;11.07;;;9.93;;
5077;SDS011;2557;51.390;7.494;2023-06-22T04:35:56;11.17;;;10.17;;
5077;SDS011;2557;51.390;7.494;2023-06-22T04:38:22;17.30;;;13.80;;
5077;SDS011;2557;51.390;7.494;2023-06-22T04:40:48;16.13;;;12.40;;
5077;SDS011;2557;51.390;7.494;2023-06-22T04:43:14;18.30;;;12.70;;
5077;SDS011;2557;51.390;7.494;2023-06-22T04:45:40;15.83;;;11.00;;
5077;SDS011;2557;51.390;7.494;2023-06-22T04:48:06;15.73;;;10.87;;
5077;SDS011;2557;51.390;7.494;2023-06-22T04:50:33;14.13;;;11.00;;
5077;SDS011;2557;51.390;7.494;2023-06-22T04:52:59;13.70;;;10.07;;
5077;SDS011;2557;51.390;7.494;2023-06-22T04:55:30;29.73;;;12.80;;
5077;SDS011;2557;51.390;7.494;2023-06-22T04:57:56;17.40;;;13.30;;
5077;SDS011;2557;51.390;7.494;2023-06-22T05:00:29;15.03;;;13.53;;
5077;SDS011;2557;51.390;7.494;2023-06-22T05:02:55;17.23;;;12.70;;
5077;SDS011;2557;51.390;7.494;2023-06-22T05:05:22;14.53;;;11.70;;
5077;SDS011;2557;51.390;7.494;2023-06-22T05:07:49;17.20;;;12.13;;
5077;SDS011;2557;51.390;7.494;2023-06-22T05:10:18;11.67;;;10.47;;
5077;SDS011;2557;51.390;7.494;2023-06-22T05:12:44;13.67;;;10.00;;
5077;SDS011;2557;51.390;7.494;2023-06-22T05:15:10;13.57;;;10.90;;
5077;SDS011;2557;51.390;7.494;2023-06-22T05:17:36;11.80;;;10.67;;
5077;SDS011;2557;51.390;7.494;2023-06-22T05:20:07;11.57;;;10.10;;
5077;SDS011;2557;51.390;7.494;2023-06-22T05:22:33;13.10;;;10.43;;
5077;SDS011;2557;51.390;7.494;2023-06-22T05:24:59;15.70;;;11.17;;
5077;SDS011;2557;51.390;7.494;2023-06-22T05:27:25;15.07;;;12.80;;
5077;SDS011;2557;51.390;7.494;2023-06-22T05:29:51;17.60;;;13.27;;
5077;SDS011;2557;51.390;7.494;2023-06-22T05:32:17;13.07;;;11.60;;
5077;SDS011;2557;51.390;7.494;2023-06-22T05:34:44;13.93;;;12.30;;
5077;SDS011;2557;51.390;7.494;2023-06-22T05:37:10;16.47;;;13.30;;
5077;SDS011;2557;51.390;7.494;2023-06-22T05:39:37;13.63;;;12.23;;
5077;SDS011;2557;51.390;7.494;2023-06-22T05:42:07;20.53;;;13.30;;
5077;SDS011;2557;51.390;7.494;2023-06-22T05:44:33;14.87;;;12.37;;
5077;SDS011;2557;51.390;7.494;2023-06-22T05:46:59;11.83;;;10.40;;
5077;SDS011;2557;51.390;7.494;2023-06-22T05:49:25;17.00;;;12.57;;
5077;SDS011;2557;51.390;7.494;2023-06-22T05:51:57;13.37;;;12.00;;
5077;SDS011;2557;51.390;7.494;2023-06-22T05:54:23;14.37;;;13.00;;
5077;SDS011;2557;51.390;7.494;2023-06-22T05:56:49;12.90;;;11.70;;
5077;SDS011;2557;51.390;7.494;2023-06-22T05:59:15;11.50;;;9.37;;
5077;SDS011;2557;51.390;7.494;2023-06-22T06:01:41;12.73;;;9.40;;
5077;SDS011;2557;51.390;7.494;2023-06-22T06:04:07;14.43;;;9.73;;
5077;SDS011;2557;51.390;7.494;2023-06-22T06:06:33;13.30;;;9.83;;
5077;SDS011;2557;51.390;7.494;2023-06-22T06:08:59;12.97;;;11.67;;
5077;SDS011;2557;51.390;7.494;2023-06-22T06:11:25;11.53;;;9.30;;
5077;SDS011;2557;51.390;7.494;2023-06-22T06:13:51;18.33;;;10.30;;
5077;SDS011;2557;51.390;7.494;2023-06-22T06:16:17;13.67;;;12.47;;
5077;SDS011;2557;51.390;7.494;2023-06-22T06:18:43;14.73;;;12.63;;
5077;SDS011;2557;51.390;7.494;2023-06-22T06:21:09;14.37;;;11.83;;
5077;SDS011;2557;51.390;7.494;2023-06-22T06:23:35;16.90;;;14.70;;
5077;SDS011;2557;51.390;7.494;2023-06-22T06:26:01;16.67;;;14.87;;
5077;SDS011;2557;51.390;7.494;2023-06-22T06:28:31;15.33;;;13.93;;
5077;SDS011;2557;51.390;7.494;2023-06-22T06:30:58;16.47;;;14.77;;
5077;SDS011;2557;51.390;7.494;2023-06-22T06:33:24;18.13;;;16.23;;
5077;SDS011;2557;51.390;7.494;2023-06-22T06:35:50;17.57;;;15.70;;
5077;SDS011;2557;51.390;7.494;2023-06-22T06:38:16;17.57;;;15.13;;
5077;SDS011;2557;51.390;7.494;2023-06-22T06:40:42;20.03;;;16.80;;
5077;SDS011;2557;51.390;7.494;2023-06-22T06:43:10;17.63;;;15.73;;
5077;SDS011;2557;51.390;7.494;2023-06-22T06:45:36;21.13;;;17.40;;
5077;SDS011;2557;51.390;7.494;2023-06-22T06:48:02;21.47;;;16.73;;
5077;SDS011;2557;51.390;7.494;2023-06-22T06:50:28;20.70;;;18.50;;
5077;SDS011;2557;51.390;7.494;2023-06-22T06:52:54;20.87;;;17.20;;
5077;SDS011;2557;51.390;7.494;2023-06-22T06:55:21;23.93;;;16.67;;
5077;SDS011;2557;51.390;7.494;2023-06-22T06:57:50;20.93;;;16.80;;
5077;SDS011;2557;51.390;7.494;2023-06-22T07:00:17;16.90;;;15.20;;
5077;SDS011;2557;51.390;7.494;2023-06-22T07:02:44;19.00;;;15.30;;
5077;SDS011;2557;51.390;7.494;2023-06-22T07:05:11;13.47;;;12.00;;
5077;SDS011;2557;51.390;7.494;2023-06-22T07:07:37;16.10;;;13.53;;
5077;SDS011;2557;51.390;7.494;2023-06-22T07:10:04;22.63;;;16.27;;
5077;SDS011;2557;51.390;7.494;2023-06-22T07:12:30;18.73;;;16.73;;
5077;SDS011;2557;51.390;7.494;2023-06-22T07:15:03;21.43;;;15.67;;
5077;SDS011;2557;51.390;7.494;2023-06-22T07:17:29;18.10;;;16.20;;
5077;SDS011;2557;51.390;7.494;2023-06-22T07:19:55;20.33;;;16.60;;
5077;SDS011;2557;51.390;7.494;2023-06-22T07:22:21;20.40;;;18.30;;
5077;SDS011;2557;51.390;7.494;2023-06-22T07:24:47;18.67;;;15.93;;
5077;SDS011;2557;51.390;7.494;2023-06-22T07:27:14;18.33;;;15.50;;
5077;SDS011;2557;51.390;7.494;2023-06-22T07:29:43;17.67;;;13.50;;
5077;SDS011;2557;51.390;7.494;2023-06-22T07:32:09;19.17;;;15.30;;
5077;SDS011;2557;51.390;7.494;2023-06-22T07:34:35;16.27;;;14.40;;
5077;SDS011;2557;51.390;7.494;2023-06-22T07:37:01;17.10;;;14.67;;
5077;SDS011;2557;51.390;7.494;2023-06-22T07:39:27;17.60;;;16.00;;
5077;SDS011;2557;51.390;7.494;2023-06-22T07:41:53;19.77;;;16.30;;
5077;SDS011;2557;51.390;7.494;2023-06-22T07:44:19;19.00;;;16.33;;
5077;SDS011;2557;51.390;7.494;2023-06-22T07:46:45;19.03;;;16.63;;
5077;SDS011;2557;51.390;7.494;2023-06-22T07:49:11;18.13;;;16.00;;
5077;SDS011;2557;51.390;7.494;2023-06-22T07:51:37;19.50;;;17.53;;
5077;SDS011;2557;51.390;7.494;2023-06-22T07:54:03;20.93;;;18.60;;
5077;SDS011;2557;51.390;7.494;2023-06-22T07:56:29;22.07;;;17.10;;
5077;SDS011;2557;51.390;7.494;2023-06-22T07:58:55;22.10;;;18.63;;
5077;SDS011;2557;51.390;7.494;2023-06-22T08:01:24;21.87;;;18.57;;
5077;SDS011;2557;51.390;7.494;2023-06-22T08:03:50;21.40;;;19.03;;
5077;SDS011;2557;51.390;7.494;2023-06-22T08:06:16;20.87;;;18.87;;
5077;SDS011;2557;51.390;7.494;2023-06-22T08:08:42;21.77;;;18.07;;
5077;SDS011;2557;51.390;7.494;2023-06-22T08:11:08;22.47;;;17.07;;
5077;SDS011;2557;51.390;7.494;2023-06-22T08:13:34;19.00;;;17.03;;
5077;SDS011;2557;51.390;7.494;2023-06-22T08:16:00;19.07;;;17.37;;
5077;SDS011;2557;51.390;7.494;2023-06-22T08:18:26;18.43;;;16.37;;
5077;SDS011;2557;51.390;7.494;2023-06-22T08:20:52;19.67;;;17.87;;
5077;SDS011;2557;51.390;7.494;2023-06-22T08:23:18;22.17;;;16.23;;
5077;SDS011;2557;51.390;7.494;2023-06-22T08:25:45;16.80;;;14.93;;
5077;SDS011;2557;51.390;7.494;2023-06-22T08:28:11;16.07;;;14.37;;
5077;SDS011;2557;51.390;7.494;2023-06-22T08:30:38;16.37;;;14.30;;
5077;SDS011;2557;51.390;7.494;2023-06-22T08:33:04;15.80;;;14.37;;
5077;SDS011;2557;51.390;7.494;2023-06-22T08:35:30;16.03;;;13.87;;
5077;SDS011;2557;51.390;7.494;2023-06-22T08:37:56;15.33;;;13.80;;
5077;SDS011;2557;51.390;7.494;2023-06-22T08:40:22;16.83;;;15.03;;
5077;SDS011;2557;51.390;7.494;2023-06-22T08:42:49;17.10;;;14.77;;
5077;SDS011;2557;51.390;7.494;2023-06-22T08:45:15;19.27;;;13.97;;
5077;SDS011;2557;51.390;7.494;2023-06-22T08:47:41;16.17;;;14.57;;
5077;SDS011;2557;51.390;7.494;2023-06-22T08:50:08;16.27;;;14.60;;
5077;SDS011;2557;51.390;7.494;2023-06-22T08:52:34;15.30;;;13.80;;
5077;SDS011;2557;51.390;7.494;2023-06-22T08:55:01;16.70;;;15.13;;
5077;SDS011;2557;51.390;7.494;2023-06-22T08:57:27;16.57;;;14.70;;
5077;SDS011;2557;51.390;7.494;2023-06-22T08:59:53;15.97;;;14.47;;
5077;SDS011;2557;51.390;7.494;2023-06-22T09:02:23;18.57;;;14.03;;
5077;SDS011;2557;51.390;7.494;2023-06-22T09:04:49;15.63;;;14.10;;
5077;SDS011;2557;51.390;7.494;2023-06-22T09:07:20;15.97;;;14.37;;
5077;SDS011;2557;51.390;7.494;2023-06-22T09:09:47;15.83;;;13.83;;
5077;SDS011;2557;51.390;7.494;2023-06-22T09:12:13;15.10;;;13.60;;
5077;SDS011;2557;51.390;7.494;2023-06-22T09:14:39;14.57;;;13.27;;
5077;SDS011;2557;51.390;7.494;2023-06-22T09:17:05;13.50;;;12.13;;
5077;SDS011;2557;51.390;7.494;2023-06-22T09:19:31;13.77;;;12.37;;
5077;SDS011;2557;51.390;7.494;2023-06-22T09:21:57;13.17;;;11.87;;
5077;SDS011;2557;51.390;7.494;2023-06-22T09:24:24;15.47;;;13.90;;
5077;SDS011;2557;51.390;7.494;2023-06-22T09:26:50;14.23;;;12.93;;
5077;SDS011;2557;51.390;7.494;2023-06-22T09:29:16;12.80;;;11.50;;
5077;SDS011;2557;51.390;7.494;2023-06-22T09:31:42;10.93;;;9.83;;
5077;SDS011;2557;51.390;7.494;2023-06-22T09:34:09;12.60;;;11.40;;
5077;SDS011;2557;51.390;7.494;2023-06-22T09:36:35;11.93;;;10.93;;
5077;SDS011;2557;51.390;7.494;2023-06-22T09:39:01;12.90;;;11.70;;
5077;SDS011;2557;51.390;7.494;2023-06-22T09:41:31;12.10;;;10.80;;
5077;SDS011;2557;51.390;7.494;2023-06-22T09:43:57;12.97;;;10.80;;
5077;SDS011;2557;51.390;7.494;2023-06-22T09:46:23;15.97;;;11.80;;
5077;SDS011;2557;51.390;7.494;2023-06-22T09:48:52;14.53;;;13.00;;
5077;SDS011;2557;51.390;7.494;2023-06-22T09:51:18;13.47;;;12.07;;
5077;SDS011;2557;51.390;7.494;2023-06-22T09:53:48;16.10;;;13.20;;
5077;SDS011;2557;51.390;7.494;2023-06-22T09:56:15;13.27;;;12.00;;
5077;SDS011;2557;51.390;7.494;2023-06-22T09:58:44;14.50;;;13.10;;
5077;SDS011;2557;51.390;7.494;2023-06-22T10:01:11;14.90;;;12.27;;
5077;SDS011;2557;51.390;7.494;2023-06-22T10:03:37;14.27;;;12.77;;
5077;SDS011;2557;51.390;7.494;2023-06-22T10:06:03;16.07;;;13.90;;
5077;SDS011;2557;51.390;7.494;2023-06-22T10:08:29;14.33;;;12.97;;
5077;SDS011;2557;51.390;7.494;2023-06-22T10:10:56;17.00;;;13.43;;
5077;SDS011;2557;51.390;7.494;2023-06-22T10:13:22;14.57;;;13.30;;
5077;SDS011;2557;51.390;7.494;2023-06-22T10:15:48;14.97;;;13.20;;
5077;SDS011;2557;51.390;7.494;2023-06-22T10:18:16;15.87;;;12.20;;
5077;SDS011;2557;51.390;7.494;2023-06-22T10:20:43;14.77;;;13.37;;
5077;SDS011;2557;51.390;7.494;2023-06-22T10:23:09;13.50;;;12.20;;
5077;SDS011;2557;51.390;7.494;2023-06-22T10:25:35;13.73;;;12.33;;
5077;SDS011;2557;51.390;7.494;2023-06-22T10:28:01;13.17;;;11.93;;
5077;SDS011;2557;51.390;7.494;2023-06-22T10:30:27;13.57;;;12.27;;
5077;SDS011;2557;51.390;7.494;2023-06-22T10:32:54;14.50;;;13.20;;
5077;SDS011;2557;51.390;7.494;2023-06-22T10:35:20;14.00;;;12.43;;
5077;SDS011;2557;51.390;7.494;2023-06-22T10:37:46;12.30;;;11.10;;
5077;SDS011;2557;51.390;7.494;2023-06-22T10:40:13;13.20;;;11.90;;
5077;SDS011;2557;51.390;7.494;2023-06-22T10:42:40;13.13;;;11.90;;
5077;SDS011;2557;51.390;7.494;2023-06-22T10:45:06;12.73;;;11.50;;
5077;SDS011;2557;51.390;7.494;2023-06-22T10:47:33;14.03;;;12.67;;
5077;SDS011;2557;51.390;7.494;2023-06-22T10:49:59;12.63;;;11.43;;
5077;SDS011;2557;51.390;7.494;2023-06-22T10:52:25;12.57;;;11.20;;
5077;SDS011;2557;51.390;7.494;2023-06-22T10:54:51;14.90;;;12.40;;
5077;SDS011;2557;51.390;7.494;2023-06-22T10:57:17;12.60;;;11.30;;
5077;SDS011;2557;51.390;7.494;2023-06-22T10:59:43;18.27;;;12.33;;
5077;SDS011;2557;51.390;7.494;2023-06-22T11:02:09;14.20;;;12.67;;
5077;SDS011;2557;51.390;7.494;2023-06-22T11:04:35;12.50;;;11.20;;
5077;SDS011;2557;51.390;7.494;2023-06-22T11:07:01;12.93;;;11.77;;
5077;SDS011;2557;51.390;7.494;2023-06-22T11:09:27;14.20;;;11.07;;
5077;SDS011;2557;51.390;7.494;2023-06-22T11:11:55;13.23;;;12.03;;
5077;SDS011;2557;51.390;7.494;2023-06-22T11:14:21;14.23;;;12.83;;
5077;SDS011;2557;51.390;7.494;2023-06-22T11:16:47;11.77;;;10.77;;
5077;SDS011;2557;51.390;7.494;2023-06-22T11:19:13;16.63;;;12.33;;
5077;SDS011;2557;51.390;7.494;2023-06-22T11:21:40;16.53;;;11.50;;
5077;SDS011;2557;51.390;7.494;2023-06-22T11:24:06;14.20;;;12.83;;
5077;SDS011;2557;51.390;7.494;2023-06-22T11:26:32;18.50;;;12.60;;
5077;SDS011;2557;51.390;7.494;2023-06-22T11:28:58;14.90;;;13.50;;
5077;SDS011;2557;51.390;7.494;2023-06-22T11:31:24;15.80;;;13.07;;
5077;SDS011;2557;51.390;7.494;2023-06-22T11:33:51;17.23;;;15.10;;
5077;SDS011;2557;51.390;7.494;2023-06-22T11:36:17;17.23;;;13.50;;
5077;SDS011;2557;51.390;7.494;2023-06-22T11:38:43;15.17;;;13.70;;
5077;SDS011;2557;51.390;7.494;2023-06-22T11:41:09;18.43;;;15.27;;
5077;SDS011;2557;51.390;7.494;2023-06-22T11:43:36;22.90;;;14.27;;
5077;SDS011;2557;51.390;7.494;2023-06-22T11:46:02;22.90;;;16.77;;
5077;SDS011;2557;51.390;7.494;2023-06-22T11:48:29;17.50;;;15.57;;
5077;SDS011;2557;51.390;7.494;2023-06-22T11:50:55;22.87;;;17.33;;
5077;SDS011;2557;51.390;7.494;2023-06-22T11:53:24;20.43;;;18.40;;
5077;SDS011;2557;51.390;7.494;2023-06-22T11:55:51;24.00;;;18.40;;
5077;SDS011;2557;51.390;7.494;2023-06-22T11:58:17;20.00;;;17.90;;
5077;SDS011;2557;51.390;7.494;2023-06-22T12:00:43;24.57;;;18.67;;
5077;SDS011;2557;51.390;7.494;2023-06-22T12:03:10;19.00;;;17.00;;
5077;SDS011;2557;51.390;7.494;2023-06-22T12:05:36;21.30;;;19.10;;
5077;SDS011;2557;51.390;7.494;2023-06-22T12:08:03;21.13;;;18.83;;
5077;SDS011;2557;51.390;7.494;2023-06-22T12:10:29;23.23;;;20.80;;
5077;SDS011;2557;51.390;7.494;2023-06-22T12:12:55;24.07;;;19.70;;
5077;SDS011;2557;51.390;7.494;2023-06-22T12:15:22;25.50;;;20.87;;
5077;SDS011;2557;51.390;7.494;2023-06-22T12:17:48;23.93;;;20.03;;
5077;SDS011;2557;51.390;7.494;2023-06-22T12:20:14;27.77;;;22.77;;
5077;SDS011;2557;51.390;7.494;2023-06-22T12:22:40;27.87;;;21.33;;
5077;SDS011;2557;51.390;7.494;2023-06-22T12:25:07;28.53;;;23.47;;
5077;SDS011;2557;51.390;7.494;2023-06-22T12:27:34;29.20;;;24.20;;
5077;SDS011;2557;51.390;7.494;2023-06-22T12:30:00;32.63;;;23.03;;
5077;SDS011;2557;51.390;7.494;2023-06-22T12:32:26;37.80;;;25.33;;
5077;SDS011;2557;51.390;7.494;2023-06-22T12:34:52;30.37;;;25.73;;
5077;SDS011;2557;51.390;7.494;2023-06-22T12:37:18;36.30;;;26.03;;
5077;SDS011;2557;51.390;7.494;2023-06-22T12:39:44;29.57;;;25.40;;
5077;SDS011;2557;51.390;7.494;2023-06-22T12:42:10;29.13;;;24.03;;
5077;SDS011;2557;51.390;7.494;2023-06-22T12:44:39;26.47;;;23.63;;
5077;SDS011;2557;51.390;7.494;2023-06-22T12:47:06;24.47;;;21.93;;
5077;SDS011;2557;51.390;7.494;2023-06-22T12:49:33;23.57;;;21.13;;
5077;SDS011;2557;51.390;7.494;2023-06-22T12:51:59;25.53;;;20.93;;
5077;SDS011;2557;51.390;7.494;2023-06-22T12:54:25;24.83;;;22.10;;
5077;SDS011;2557;51.390;7.494;2023-06-22T12:56:51;24.90;;;22.30;;
5077;SDS011;2557;51.390;7.494;2023-06-22T12:59:17;23.90;;;21.50;;
5077;SDS011;2557;51.390;7.494;2023-06-22T13:01:43;27.10;;;23.27;;
5077;SDS011;2557;51.390;7.494;2023-06-22T13:04:10;25.70;;;20.63;;
5077;SDS011;2557;51.390;7.494;2023-06-22T13:06:39;22.20;;;19.90;;
5077;SDS011;2557;51.390;7.494;2023-06-22T13:09:05;22.20;;;19.80;;
5077;SDS011;2557;51.390;7.494;2023-06-22T13:11:31;21.53;;;19.43;;
5077;SDS011;2557;51.390;7.494;2023-06-22T13:13:57;23.50;;;21.10;;
5077;SDS011;2557;51.390;7.494;2023-06-22T13:16:23;24.00;;;19.93;;
5077;SDS011;2557;51.390;7.494;2023-06-22T13:18:49;20.50;;;18.30;;
5077;SDS011;2557;51.390;7.494;2023-06-22T13:21:15;20.27;;;18.07;;
5077;SDS011;2557;51.390;7.494;2023-06-22T13:23:41;18.60;;;16.60;;
5077;SDS011;2557;51.390;7.494;2023-06-22T13:26:07;18.70;;;16.87;;
5077;SDS011;2557;51.390;7.494;2023-06-22T13:28:33;17.20;;;15.07;;
5077;SDS011;2557;51.390;7.494;2023-06-22T13:30:59;17.70;;;15.90;;
5077;SDS011;2557;51.390;7.494;2023-06-22T13:33:25;18.80;;;16.70;;
5077;SDS011;2557;51.390;7.494;2023-06-22T13:35:51;21.00;;;18.30;;
5077;SDS011;2557;51.390;7.494;2023-06-22T13:38:17;19.83;;;17.70;;
5077;SDS011;2557;51.390;7.494;2023-06-22T13:40:43;19.53;;;17.50;;
5077;SDS011;2557;51.390;7.494;2023-06-22T13:43:09;19.23;;;17.33;;
5077;SDS011;2557;51.390;7.494;2023-06-22T13:45:35;17.37;;;15.67;;
5077;SDS011;2557;51.390;7.494;2023-06-22T13:48:01;16.87;;;14.97;;
5077;SDS011;2557;51.390;7.494;2023-06-22T13:50:27;13.30;;;11.93;;
5077;SDS011;2557;51.390;7.494;2023-06-22T13:52:54;13.53;;;11.83;;
5077;SDS011;2557;51.390;7.494;2023-06-22T13:55:21;14.17;;;12.83;;
5077;SDS011;2557;51.390;7.494;2023-06-22T13:57:48;15.70;;;14.30;;
5077;SDS011;2557;51.390;7.494;2023-06-22T14:00:14;16.03;;;14.43;;
5077;SDS011;2557;51.390;7.494;2023-06-22T14:02:40;17.10;;;15.30;;
5077;SDS011;2557;51.390;7.494;2023-06-22T14:05:06;17.37;;;15.50;;
5077;SDS011;2557;51.390;7.494;2023-06-22T14:07:33;16.20;;;14.50;;
5077;SDS011;2557;51.390;7.494;2023-06-22T14:09:59;14.10;;;12.80;;
5077;SDS011;2557;51.390;7.494;2023-06-22T14:12:26;14.90;;;13.40;;
5077;SDS011;2557;51.390;7.494;2023-06-22T14:14:52;15.17;;;13.77;;
5077;SDS011;2557;51.390;7.494;2023-06-22T14:17:18;13.53;;;12.23;;
5077;SDS011;2557;51.390;7.494;2023-06-22T14:19:49;12.87;;;11.53;;
5077;SDS011;2557;51.390;7.494;2023-06-22T14:22:17;14.23;;;12.83;;
5077;SDS011;2557;51.390;7.494;2023-06-22T14:24:42;13.70;;;11.63;;
5077;SDS011;2557;51.390;7.494;2023-06-22T14:27:10;10.63;;;9.73;;
5077;SDS011;2557;51.390;7.494;2023-06-22T14:29:36;13.47;;;11.57;;
5077;SDS011;2557;51.390;7.494;2023-06-22T14:32:02;14.50;;;11.83;;
5077;SDS011;2557;51.390;7.494;2023-06-22T14:34:29;14.23;;;12.83;;
5077;SDS011;2557;51.390;7.494;2023-06-22T14:36:55;13.63;;;12.43;;
5077;SDS011;2557;51.390;7.494;2023-06-22T14:39:21;14.27;;;12.83;;
5077;SDS011;2557;51.390;7.494;2023-06-22T14:41:47;14.83;;;12.70;;
5077;SDS011;2557;51.390;7.494;2023-06-22T14:44:13;13.07;;;11.93;;
5077;SDS011;2557;51.390;7.494;2023-06-22T14:46:39;15.10;;;13.40;;
5077;SDS011;2557;51.390;7.494;2023-06-22T14:49:05;14.10;;;12.70;;
5077;SDS011;2557;51.390;7.494;2023-06-22T14:51:31;15.67;;;14.03;;
5077;SDS011;2557;51.390;7.494;2023-06-22T14:53:57;19.23;;;15.20;;
5077;SDS011;2557;51.390;7.494;2023-06-22T14:56:23;18.00;;;16.10;;